Time;durP1;ratioP1;P1;durP2;ratioP2;P2;SDS_P1;SDS_P2;PMS_P1;PMS_P2;Temp;Humidity;BMP_temperature;BMP_pressure;BME280_temperature;BME280_humidity;BME280_pressure;Samples;Min_cycle;Max_cycle;Signal;HPM_P1;HPM_P2
2022/03/11 00:01:37;;;;;;;;;;;;;;;-0.20;36.29;101481.69;4407228;32;34822;-81
2022/03/11 00:04:25;;;;;;;;;;;;;;;-0.27;36.26;101474.91;4396283;32;35915;-80
2022/03/11 00:06:52;;;;;;;;;;;;;;;-0.41;36.49;101487.44;4405839;32;34326;-79
2022/03/11 00:09:19;;;;;;;;;;;;;;;-0.25;36.02;101482.69;4406736;32;32479;-79
2022/03/11 00:11:47;;;;;;;;;;;;;;;-0.25;36.02;101485.31;4397987;32;34399;-79
2022/03/11 00:14:15;;;;;;;;;;;;;;;-0.43;36.30;101488.34;4393313;32;36169;-80
2022/03/11 00:16:42;;;;;;;;;;;;;;;-0.24;36.26;101480.06;4407583;32;35082;-79
2022/03/11 00:19:10;;;;;;;;;;;;;;;-0.08;35.79;101491.88;4401138;32;32291;-80
2022/03/11 00:21:37;;;;;;;;;;;;;;;0.04;35.75;101486.34;4398661;32;34071;-80
2022/03/11 00:24:04;;;;;;;;;;;;;;;0.27;35.24;101490.09;4399642;32;37191;-80
2022/03/11 00:26:34;;;;;;;;;;;;;;;0.31;35.10;101489.09;4405023;32;34544;-79
2022/03/11 00:29:01;;;;;;;;;;;;;;;0.21;35.50;101487.63;4404917;32;33472;-79
2022/03/11 00:31:28;;;;;;;;;;;;;;;0.08;35.36;101480.09;4407066;32;33612;-79
2022/03/11 00:33:56;;;;;;;;;;;;;;;0.28;35.17;101491.81;4409877;32;34669;-80
2022/03/11 00:36:23;;;;;;;;;;;;;;;-0.11;35.57;101486.69;4391564;32;34091;-80
2022/03/11 00:38:51;;;;;;;;;;;;;;;0.00;35.48;101498.63;4404153;32;33195;-82
2022/03/11 00:41:18;;;;;;;;;;;;;;;0.50;35.14;101494.72;4390958;32;34086;-79
2022/03/11 00:43:46;;;;;;;;;;;;;;;0.21;35.25;101486.78;4403978;32;35206;-81
2022/03/11 00:46:13;;;;;;;;;;;;;;;0.28;34.95;101490.97;4408540;32;34689;-79
2022/03/11 00:48:41;;;;;;;;;;;;;;;0.39;35.21;101494.16;4390320;32;32930;-79
2022/03/11 00:51:09;;;;;;;;;;;;;;;0.68;34.40;101491.63;4414734;32;34080;-80
2022/03/11 00:53:36;;;;;;;;;;;;;;;0.27;35.00;101478.75;4411578;32;34691;-80
2022/03/11 00:56:04;;;;;;;;;;;;;;;0.23;34.72;101488.47;4388908;32;780193;-80
2022/03/11 00:58:31;;;;;;;;;;;;;;;0.33;34.91;101489.06;4395384;32;33363;-79
2022/03/11 01:00:58;;;;;;;;;;;;;;;0.18;34.88;101482.47;4408490;32;34174;-79
2022/03/11 01:03:27;;;;;;;;;;;;;;;0.16;35.55;101486.00;4391682;32;35959;-79
2022/03/11 01:05:54;;;;;;;;;;;;;;;0.37;36.01;101482.84;4404712;32;33753;-80
2022/03/11 01:08:21;;;;;;;;;;;;;;;0.60;34.80;101475.25;4403632;32;33548;-79
2022/03/11 01:10:49;;;;;;;;;;;;;;;0.72;34.66;101488.00;4404422;32;33643;-79
2022/03/11 01:13:16;;;;;;;;;;;;;;;0.57;34.70;101473.56;4377863;32;36119;-79
2022/03/11 01:15:44;;;;;;;;;;;;;;;0.58;34.24;101479.69;4396406;32;34559;-79
2022/03/11 01:18:12;;;;;;;;;;;;;;;0.59;34.24;101484.00;4393543;32;34105;-79
2022/03/11 01:20:39;;;;;;;;;;;;;;;0.20;35.52;101485.91;4393771;32;33991;-79
2022/03/11 01:23:07;;;;;;;;;;;;;;;0.47;34.79;101474.72;4393591;32;35298;-80
2022/03/11 01:25:34;;;;;;;;;;;;;;;0.62;33.96;101476.94;4405621;32;34555;-79
2022/03/11 01:28:01;;;;;;;;;;;;;;;0.30;34.74;101486.53;4412353;32;33223;-79
2022/03/11 01:30:28;;;;;;;;;;;;;;;0.31;35.25;101491.72;4395027;32;33810;-80
2022/03/11 01:32:56;;;;;;;;;;;;;;;0.54;34.82;101484.13;4403144;32;34632;-79
2022/03/11 01:35:24;;;;;;;;;;;;;;;0.58;34.24;101487.53;4403692;32;33027;-79
2022/03/11 01:37:51;;;;;;;;;;;;;;;0.31;34.46;101489.09;4401701;32;34127;-80
2022/03/11 01:40:19;;;;;;;;;;;;;;;0.18;34.91;101477.25;4391919;32;33796;-79
2022/03/11 01:42:46;;;;;;;;;;;;;;;0.24;34.96;101471.84;4387362;32;35370;-80
2022/03/11 01:45:13;;;;;;;;;;;;;;;0.24;35.08;101471.84;4396983;32;35020;-79
2022/03/11 01:47:42;;;;;;;;;;;;;;;0.55;34.26;101467.50;4403793;32;32569;-79
2022/03/11 01:50:09;;;;;;;;;;;;;;;0.43;34.33;101469.59;4396256;32;33890;-76
2022/03/11 01:52:37;;;;;;;;;;;;;;;0.22;34.53;101475.41;4393571;32;36075;-76
2022/03/11 01:55:05;;;;;;;;;;;;;;;0.21;34.83;101476.31;4407655;32;34748;-76
2022/03/11 01:57:34;;;;;;;;;;;;;;;0.49;34.13;101475.53;4380359;32;33037;-76
2022/03/11 02:00:03;;;;;;;;;;;;;;;0.42;33.88;101471.37;4398141;32;32973;-77
2022/03/11 02:02:38;;;;;;;;;;;;;;;0.37;34.21;101470.63;4405026;32;35284;-76
2022/03/11 02:05:06;;;;;;;;;;;;;;;0.17;34.64;101469.41;4392058;32;35561;-76
2022/03/11 02:07:33;;;;;;;;;;;;;;;0.19;35.00;101473.72;4405348;32;33410;-77
2022/03/11 02:10:00;;;;;;;;;;;;;;;0.23;34.51;101475.38;4396495;32;33837;-76
2022/03/11 02:12:32;;;;;;;;;;;;;;;0.17;34.42;101470.28;4405449;32;35536;-78
2022/03/11 02:15:04;;;;;;;;;;;;;;;0.08;35.12;101470.53;4396809;32;35469;-79
2022/03/11 02:17:31;;;;;;;;;;;;;;;0.15;35.14;101465.97;4406219;32;33630;-79
2022/03/11 02:19:59;;;;;;;;;;;;;;;0.25;34.45;101470.09;4405271;32;34567;-79
2022/03/11 02:22:26;;;;;;;;;;;;;;;0.31;34.44;101481.25;4390779;32;35327;-79
2022/03/11 02:24:54;;;;;;;;;;;;;;;0.17;34.58;101474.66;4408921;32;34873;-79
2022/03/11 02:27:22;;;;;;;;;;;;;;;0.02;34.75;101475.06;4404513;32;32375;-78
2022/03/11 02:29:49;;;;;;;;;;;;;;;0.24;34.02;101481.44;4390093;32;34423;-78
2022/03/11 02:32:16;;;;;;;;;;;;;;;0.12;34.21;101487.00;4389654;32;35009;-78
2022/03/11 02:34:44;;;;;;;;;;;;;;;0.07;34.44;101479.28;4399934;32;34471;-80
2022/03/11 02:37:11;;;;;;;;;;;;;;;0.24;34.18;101478.84;4412936;32;33690;-79
2022/03/11 02:39:39;;;;;;;;;;;;;;;0.33;34.25;101471.63;4389516;32;34985;-78
2022/03/11 02:42:06;;;;;;;;;;;;;;;0.35;34.63;101480.28;4403670;32;35638;-78
2022/03/11 02:44:34;;;;;;;;;;;;;;;0.66;33.64;101483.78;4408803;32;34130;-78
2022/03/11 02:47:01;;;;;;;;;;;;;;;0.51;34.51;101476.38;4413519;32;34093;-79
2022/03/11 02:49:29;;;;;;;;;;;;;;;0.59;33.92;101479.59;4407066;32;33345;-79
2022/03/11 02:51:56;;;;;;;;;;;;;;;0.49;34.17;101462.44;4410411;32;34662;-78
2022/03/11 02:54:24;;;;;;;;;;;;;;;0.67;33.90;101469.78;4386241;32;34798;-79
2022/03/11 02:56:51;;;;;;;;;;;;;;;0.79;33.66;101474.72;4400866;32;33287;-78
2022/03/11 02:59:18;;;;;;;;;;;;;;;0.77;34.17;101473.03;4404336;32;32242;-78
2022/03/11 03:01:46;;;;;;;;;;;;;;;0.78;33.92;101479.97;4411079;32;34995;-78
2022/03/11 03:04:13;;;;;;;;;;;;;;;0.87;33.47;101477.09;4394770;32;34718;-78
2022/03/11 03:06:41;;;;;;;;;;;;;;;0.66;34.05;101469.84;4406794;32;34217;-78
2022/03/11 03:09:08;;;;;;;;;;;;;;;0.78;33.79;101475.59;4395993;32;33703;-78
2022/03/11 03:11:36;;;;;;;;;;;;;;;0.79;33.50;101472.09;4410466;32;36110;-78
2022/03/11 03:14:03;;;;;;;;;;;;;;;0.80;33.46;101476.44;4395772;32;35296;-78
2022/03/11 03:16:31;;;;;;;;;;;;;;;0.51;34.35;101472.88;4388964;32;31289;-78
2022/03/11 03:18:59;;;;;;;;;;;;;;;0.48;35.01;101470.34;4394029;32;32532;-78
2022/03/11 03:21:27;;;;;;;;;;;;;;;0.51;35.53;101475.50;4413579;32;35320;-78
2022/03/11 03:23:54;;;;;;;;;;;;;;;0.53;35.05;101471.94;4405912;32;34041;-78
2022/03/11 03:26:22;;;;;;;;;;;;;;;0.51;35.06;101475.50;4402202;32;33214;-78
2022/03/11 03:28:49;;;;;;;;;;;;;;;0.61;35.22;101474.34;4396142;32;33439;-75
2022/03/11 03:31:21;;;;;;;;;;;;;;;0.73;34.58;101476.63;4399527;32;36099;-75
2022/03/11 03:33:49;;;;;;;;;;;;;;;0.60;34.41;101475.25;4411147;32;34373;-75
2022/03/11 03:36:16;;;;;;;;;;;;;;;0.46;35.00;101465.16;4401600;32;32953;-75
2022/03/11 03:38:44;;;;;;;;;;;;;;;0.38;35.17;101468.88;4406680;32;34257;-75
2022/03/11 03:41:11;;;;;;;;;;;;;;;0.20;35.23;101461.50;4405906;32;35525;-76
2022/03/11 03:43:39;;;;;;;;;;;;;;;0.31;35.98;101467.31;4398607;32;33556;-77
2022/03/11 03:46:07;;;;;;;;;;;;;;;0.24;36.47;101470.97;4400331;32;33046;-75
2022/03/11 03:48:34;;;;;;;;;;;;;;;0.16;36.50;101472.94;4409766;32;34084;-76
2022/03/11 03:51:01;;;;;;;;;;;;;;;0.34;36.31;101462.00;4381983;32;34556;-75
2022/03/11 03:53:29;;;;;;;;;;;;;;;0.28;35.88;101462.16;4401666;32;35031;-76
2022/03/11 03:55:56;;;;;;;;;;;;;;;0.48;35.12;101465.97;4375218;32;32710;-75
2022/03/11 03:58:23;;;;;;;;;;;;;;;0.33;35.95;101465.50;4406725;32;34863;-78
2022/03/11 04:00:51;;;;;;;;;;;;;;;0.27;35.38;101468.28;4406504;32;35359;-78
2022/03/11 04:03:19;;;;;;;;;;;;;;;0.24;34.84;101479.72;4394540;32;35362;-78
2022/03/11 04:05:46;;;;;;;;;;;;;;;0.04;36.39;101479.31;4400345;32;32901;-78
2022/03/11 04:08:13;;;;;;;;;;;;;;;-0.03;36.52;101483.91;4405156;32;34723;-79
2022/03/11 04:10:41;;;;;;;;;;;;;;;0.06;37.13;101487.16;4401346;32;36019;-78
2022/03/11 04:13:08;;;;;;;;;;;;;;;-0.14;36.78;101480.66;4395451;32;33710;-78
2022/03/11 04:15:36;;;;;;;;;;;;;;;-0.05;37.23;101478.72;4404211;32;31076;-78
2022/03/11 04:18:04;;;;;;;;;;;;;;;-0.16;36.44;101485.09;4408633;32;34103;-78
2022/03/11 04:20:31;;;;;;;;;;;;;;;0.00;36.25;101490.78;4402251;32;35985;-79
2022/03/11 04:22:59;;;;;;;;;;;;;;;0.14;36.71;101493.94;4397273;32;33111;-78
2022/03/11 04:25:28;;;;;;;;;;;;;;;0.17;36.27;101496.44;4402731;32;34302;-77
2022/03/11 04:27:55;;;;;;;;;;;;;;;0.11;36.70;101496.59;4405934;32;33683;-78
2022/03/11 04:30:23;;;;;;;;;;;;;;;-0.06;36.57;101501.37;4374362;32;36153;-78
2022/03/11 04:32:51;;;;;;;;;;;;;;;0.17;36.33;101495.56;4399483;32;34882;-78
2022/03/11 04:35:19;;;;;;;;;;;;;;;-0.02;36.39;101496.94;4405529;32;32290;-78
2022/03/11 04:37:46;;;;;;;;;;;;;;;-0.03;36.53;101498.72;4393785;32;34093;-78
2022/03/11 04:40:13;;;;;;;;;;;;;;;-0.10;37.24;101498.03;4406973;32;34836;-79
2022/03/11 04:42:41;;;;;;;;;;;;;;;-0.20;37.29;101497.38;4403888;32;34781;-77
2022/03/11 04:45:08;;;;;;;;;;;;;;;-0.32;37.43;101499.44;4413326;32;33426;-76
2022/03/11 04:47:36;;;;;;;;;;;;;;;-0.13;37.08;101504.19;4412197;32;34285;-77
2022/03/11 04:50:03;;;;;;;;;;;;;;;-0.28;37.21;101508.91;4387421;32;33272;-77
2022/03/11 04:52:31;;;;;;;;;;;;;;;-0.34;37.65;101515.16;4391191;32;33700;-79
2022/03/11 04:54:58;;;;;;;;;;;;;;;-0.35;37.32;101512.56;4402298;32;34057;-76
2022/03/11 04:57:26;;;;;;;;;;;;;;;-0.41;37.17;101516.19;4408511;32;33936;-78
2022/03/11 04:59:53;;;;;;;;;;;;;;;-0.32;36.87;101513.34;4390136;32;35932;-77
2022/03/11 05:02:25;;;;;;;;;;;;;;;-0.78;38.89;101523.09;4387631;32;34758;-78
2022/03/11 05:04:52;;;;;;;;;;;;;;;-0.76;38.89;101510.84;4387539;32;32432;-77
2022/03/11 05:07:20;;;;;;;;;;;;;;;-1.01;39.34;101514.00;4398547;32;34351;-77
2022/03/11 05:09:47;;;;;;;;;;;;;;;-0.72;38.87;101524.72;4403986;32;35642;-77
2022/03/11 05:12:19;;;;;;;;;;;;;;;-0.76;38.68;101523.91;4385403;32;34172;-77
2022/03/11 05:14:50;;;;;;;;;;;;;;;-0.66;38.19;101517.59;4391343;32;33864;-78
2022/03/11 05:17:32;;;;;;;;;;;;;;;-0.64;38.26;101514.97;4405683;32;35283;-76
2022/03/11 05:19:59;;;;;;;;;;;;;;;-0.91;39.28;101516.41;4387047;32;35285;-76
2022/03/11 05:22:27;;;;;;;;;;;;;;;-0.88;39.43;101521.56;4395817;32;35539;-76
2022/03/11 05:24:54;;;;;;;;;;;;;;;-0.94;39.47;101526.06;4406850;32;33096;-77
2022/03/11 05:27:22;;;;;;;;;;;;;;;-1.17;39.49;101525.66;4398227;32;34282;-76
2022/03/11 05:29:49;;;;;;;;;;;;;;;-0.61;38.19;101518.37;4386748;32;36012;-78
2022/03/11 05:32:19;;;;;;;;;;;;;;;-0.93;39.55;101526.03;4405559;32;34784;-77
2022/03/11 05:34:47;;;;;;;;;;;;;;;-0.80;39.36;101524.87;4389280;32;33855;-80
2022/03/11 05:37:15;;;;;;;;;;;;;;;-1.14;40.49;101528.22;4408149;32;33821;-79
2022/03/11 05:39:43;;;;;;;;;;;;;;;-0.86;40.10;101535.47;4407126;32;36078;-79
2022/03/11 05:42:10;;;;;;;;;;;;;;;-1.11;40.36;101534.25;4407934;32;34693;-77
2022/03/11 05:44:37;;;;;;;;;;;;;;;-1.05;40.22;101541.09;4411100;32;33166;-78
2022/03/11 05:47:05;;;;;;;;;;;;;;;-0.94;40.27;101541.75;4407169;32;34358;-78
2022/03/11 05:49:32;;;;;;;;;;;;;;;-0.98;39.94;101547.91;4407755;32;36101;-79
2022/03/11 05:52:00;;;;;;;;;;;;;;;-0.90;40.10;101543.38;4393497;32;34563;-78
2022/03/11 05:54:27;;;;;;;;;;;;;;;-0.73;39.87;101549.13;4404082;32;33656;-79
2022/03/11 05:56:55;;;;;;;;;;;;;;;-0.53;39.51;101541.72;4408556;32;33736;-80
2022/03/11 05:59:23;;;;;;;;;;;;;;;-0.43;39.85;101543.25;4389202;32;33562;-77
2022/03/11 06:01:51;;;;;;;;;;;;;;;-0.59;39.86;101550.56;4405438;32;35368;-78
2022/03/11 06:04:19;;;;;;;;;;;;;;;-0.45;38.66;101550.25;4407824;32;33325;-77
2022/03/11 06:06:46;;;;;;;;;;;;;;;-0.33;38.68;101553.47;4405252;32;34847;-78
2022/03/11 06:09:14;;;;;;;;;;;;;;;-0.35;38.83;101563.13;4393842;32;34298;-78
2022/03/11 06:11:41;;;;;;;;;;;;;;;-0.06;37.57;101563.31;4406914;32;35406;-79
2022/03/11 06:14:09;;;;;;;;;;;;;;;0.08;37.32;101569.06;4391019;32;31511;-78
2022/03/11 06:16:36;;;;;;;;;;;;;;;-0.07;38.88;101572.91;4392828;32;34979;-78
2022/03/11 06:19:04;;;;;;;;;;;;;;;-0.13;38.40;101561.72;4394568;32;35357;-78
2022/03/11 06:21:31;;;;;;;;;;;;;;;0.35;36.57;101565.78;4412106;32;34877;-79
2022/03/11 06:23:59;;;;;;;;;;;;;;;0.31;36.59;101561.53;4390311;32;34583;-77
2022/03/11 06:26:26;;;;;;;;;;;;;;;0.38;36.19;101563.97;4404009;32;33898;-79
2022/03/11 06:28:53;;;;;;;;;;;;;;;0.34;36.98;101559.72;4395705;32;33691;-77
2022/03/11 06:31:21;;;;;;;;;;;;;;;0.22;37.06;101567.00;4399050;32;35505;-77
2022/03/11 06:33:48;;;;;;;;;;;;;;;0.15;37.85;101574.12;4390604;32;32710;-78
2022/03/11 06:36:16;;;;;;;;;;;;;;;0.51;35.79;101569.75;4400928;32;34324;-77
2022/03/11 06:38:43;;;;;;;;;;;;;;;0.27;36.29;101573.84;4378629;32;33192;-79
2022/03/11 06:41:11;;;;;;;;;;;;;;;0.42;36.20;101573.47;4402718;32;34808;-77
2022/03/11 06:43:38;;;;;;;;;;;;;;;0.50;36.29;101576.72;4390088;32;33340;-78
2022/03/11 06:46:08;;;;;;;;;;;;;;;0.62;35.92;101572.94;4407758;32;34180;-78
2022/03/11 06:48:36;;;;;;;;;;;;;;;0.66;35.62;101574.59;4398859;32;34724;-78
2022/03/11 06:51:04;;;;;;;;;;;;;;;0.62;34.96;101572.94;4392571;32;34790;-78
2022/03/11 06:53:33;;;;;;;;;;;;;;;0.73;35.25;101576.16;4400032;32;33489;-78
2022/03/11 06:56:01;;;;;;;;;;;;;;;0.65;35.16;101573.72;4406885;32;34915;-78
2022/03/11 06:58:28;;;;;;;;;;;;;;;0.51;35.11;101577.59;4390089;32;35082;-79
2022/03/11 07:00:56;;;;;;;;;;;;;;;0.55;34.71;101572.25;4397772;32;34114;-80
2022/03/11 07:03:24;;;;;;;;;;;;;;;0.65;34.42;101572.84;4412271;32;32878;-79
2022/03/11 07:05:51;;;;;;;;;;;;;;;0.86;34.73;101575.78;4388305;32;34406;-79
2022/03/11 07:08:19;;;;;;;;;;;;;;;1.30;33.75;101574.56;4371918;32;35801;-81
2022/03/11 07:10:47;;;;;;;;;;;;;;;1.34;33.31;101571.81;4402025;32;34404;-80
2022/03/11 07:13:14;;;;;;;;;;;;;;;1.41;32.62;101577.75;4391332;32;33352;-83
2022/03/11 07:15:42;;;;;;;;;;;;;;;1.36;33.18;101587.50;4397094;32;33888;-81
2022/03/11 07:18:09;;;;;;;;;;;;;;;1.48;32.74;101585.41;4398759;32;35670;-81
2022/03/11 07:20:37;;;;;;;;;;;;;;;1.47;32.63;101581.06;4389327;32;35300;-83
2022/03/11 07:23:24;;;;;;;;;;;;;;;1.08;32.42;101581.31;4377015;32;31590;-80
2022/03/11 07:25:52;;;;;;;;;;;;;;;0.73;32.95;101581.38;4385480;32;34000;-81
2022/03/11 07:28:20;;;;;;;;;;;;;;;0.83;32.45;101590.72;4396838;32;33632;-81
2022/03/11 07:30:49;;;;;;;;;;;;;;;0.94;32.59;101586.09;4391789;32;34673;-81
2022/03/11 07:33:17;;;;;;;;;;;;;;;1.40;31.60;101594.41;4394904;32;34399;-82
2022/03/11 07:35:44;;;;;;;;;;;;;;;1.32;32.23;101591.12;4390259;32;35221;-83
2022/03/11 07:38:12;;;;;;;;;;;;;;;1.16;31.53;101597.69;4393024;32;34818;-80
2022/03/11 07:40:39;;;;;;;;;;;;;;;0.88;32.70;101588.84;4398734;32;33940;-81
2022/03/11 07:43:09;;;;;;;;;;;;;;;1.17;31.67;101576.69;4401074;32;34028;-82
2022/03/11 07:45:37;;;;;;;;;;;;;;;1.14;31.85;101582.00;4397132;32;34221;-79
2022/03/11 07:48:05;;;;;;;;;;;;;;;1.22;31.67;101587.03;4386562;32;34851;-81
2022/03/11 07:50:33;;;;;;;;;;;;;;;1.36;31.87;101580.50;4385743;32;34846;-79
2022/03/11 07:53:01;;;;;;;;;;;;;;;1.41;31.37;101586.47;4402342;32;33002;-81
2022/03/11 07:55:29;;;;;;;;;;;;;;;1.46;31.80;101597.69;4413604;32;33945;-80
2022/03/11 07:57:56;;;;;;;;;;;;;;;1.42;31.80;101593.44;4393453;32;34875;-80
2022/03/11 08:00:24;;;;;;;;;;;;;;;1.51;31.35;101593.16;4401500;32;34302;-80
2022/03/11 08:02:52;;;;;;;;;;;;;;;1.65;31.32;101592.75;4395367;32;33014;-82
2022/03/11 08:05:19;;;;;;;;;;;;;;;1.53;31.30;101590.50;4395083;32;33517;-80
2022/03/11 08:07:48;;;;;;;;;;;;;;;1.54;31.64;101594.84;4386555;32;35291;-82
2022/03/11 08:10:17;;;;;;;;;;;;;;;1.95;31.10;101583.94;4400292;32;34211;-83
2022/03/11 08:12:45;;;;;;;;;;;;;;;1.59;31.19;101592.97;4386825;32;33286;-84
2022/03/11 08:15:13;;;;;;;;;;;;;;;1.73;31.45;101593.41;4390039;32;33985;-83
2022/03/11 08:17:41;;;;;;;;;;;;;;;1.80;31.29;101587.91;4375177;32;33873;-83
2022/03/11 08:20:09;;;;;;;;;;;;;;;1.84;31.22;101586.06;4388509;32;34789;-84
2022/03/11 08:22:37;;;;;;;;;;;;;;;1.66;31.52;101586.59;4412493;32;31555;-83
2022/03/11 08:25:10;;;;;;;;;;;;;;;1.84;31.27;101583.44;4377462;32;34018;-83
2022/03/11 08:27:38;;;;;;;;;;;;;;;2.16;30.25;101581.53;4407868;32;35884;-82
2022/03/11 08:30:07;;;;;;;;;;;;;;;2.28;29.87;101585.53;4394982;32;34667;-81
2022/03/11 08:32:35;;;;;;;;;;;;;;;1.91;30.91;101585.84;4401712;32;33146;-87
2022/03/11 08:35:03;;;;;;;;;;;;;;;2.08;30.25;101578.28;4412675;32;34645;-82
2022/03/11 08:37:38;;;;;;;;;;;;;;;2.30;30.33;101573.22;4386594;32;35027;-81
2022/03/11 08:40:06;;;;;;;;;;;;;;;2.47;30.71;101574.38;4412785;32;35247;-83
2022/03/11 08:42:34;;;;;;;;;;;;;;;2.87;29.56;101557.19;4400735;32;32933;-80
2022/03/11 08:45:05;;;;;;;;;;;;;;;3.11;28.51;101566.84;4401539;32;34481;-80
2022/03/11 08:47:33;;;;;;;;;;;;;;;3.16;28.83;101558.78;4385327;32;35829;-79
2022/03/11 08:50:02;;;;;;;;;;;;;;;3.28;28.24;101563.59;4373241;32;35591;-80
2022/03/11 08:52:31;;;;;;;;;;;;;;;3.11;27.59;101558.97;4412036;32;33155;-80
2022/03/11 08:54:59;;;;;;;;;;;;;;;2.68;28.47;101560.53;4398294;32;34827;-80
2022/03/11 08:57:27;;;;;;;;;;;;;;;2.65;28.13;101562.41;4393623;32;35051;-79
2022/03/11 09:00:00;;;;;;;;;;;;;;;2.66;28.13;101553.59;4396077;32;34683;-80
2022/03/11 09:02:27;;;;;;;;;;;;;;;2.62;28.40;101549.38;4400507;32;32891;-79
2022/03/11 09:04:55;;;;;;;;;;;;;;;2.56;28.68;101553.06;4412121;32;33548;-80
2022/03/11 09:07:29;;;;;;;;;;;;;;;2.31;28.63;101544.28;4413956;32;35324;-80
2022/03/11 09:10:00;;;;;;;;;;;;;;;2.92;28.37;101554.41;4406031;32;34898;-80
2022/03/11 09:12:28;;;;;;;;;;;;;;;3.27;26.89;101549.63;4386460;32;33466;-80
2022/03/11 09:14:59;;;;;;;;;;;;;;;3.27;27.36;101540.84;4382133;32;34744;-80
2022/03/11 09:17:27;;;;;;;;;;;;;;;3.51;27.51;101543.41;4410857;32;35075;-80
2022/03/11 09:19:56;;;;;;;;;;;;;;;4.04;26.19;101531.66;4394122;32;33899;-80
2022/03/11 09:22:41;;;;;;;;;;;;;;;3.65;27.52;101541.13;4405996;32;32651;-81
2022/03/11 09:25:09;;;;;;;;;;;;;;;4.19;26.09;101524.94;4397680;32;33483;-80
2022/03/11 09:27:37;;;;;;;;;;;;;;;4.25;26.20;101527.31;4374015;32;33002;-80
2022/03/11 09:30:06;;;;;;;;;;;;;;;4.43;26.08;101534.47;4409025;32;34832;-80
2022/03/11 09:32:34;;;;;;;;;;;;;;;3.89;25.75;101526.16;4398546;32;33442;-80
2022/03/11 09:35:02;;;;;;;;;;;;;;;3.59;27.64;101530.84;4389618;32;33102;-80
2022/03/11 09:37:29;;;;;;;;;;;;;;;3.95;26.77;101531.16;4396119;32;34910;-81
2022/03/11 09:39:57;;;;;;;;;;;;;;;3.84;26.38;101525.47;4394582;32;35463;-80
2022/03/11 09:42:25;;;;;;;;;;;;;;;4.07;25.65;101521.00;4399358;32;33321;-81
2022/03/11 09:44:53;;;;;;;;;;;;;;;4.13;25.59;101520.75;4405138;32;33887;-81
2022/03/11 09:47:24;;;;;;;;;;;;;;;3.86;25.73;101507.87;4413406;32;35099;-81
2022/03/11 09:50:06;;;;;;;;;;;;;;;4.00;26.36;101516.94;4395303;32;35422;-80
2022/03/11 09:52:35;;;;;;;;;;;;;;;4.09;25.88;101508.66;4391096;32;33530;-80
2022/03/11 09:55:07;;;;;;;;;;;;;;;3.68;25.86;101513.84;4388612;32;34081;-81
2022/03/11 09:57:34;;;;;;;;;;;;;;;4.24;26.29;101509.81;4401873;32;35666;-82
2022/03/11 10:00:04;;;;;;;;;;;;;;;4.43;24.88;101516.84;4389502;32;33922;-84
2022/03/11 10:02:42;;;;;;;;;;;;;;;3.98;25.13;101510.84;4398095;32;33301;-81
2022/03/11 10:05:12;;;;;;;;;;;;;;;4.22;25.04;101503.72;4374972;32;32071;-82
2022/03/11 10:08:01;;;;;;;;;;;;;;;4.09;24.93;101503.38;4403084;32;34315;-82
2022/03/11 10:10:28;;;;;;;;;;;;;;;4.27;25.41;101499.13;4397061;32;35570;-81
2022/03/11 10:13:08;;;;;;;;;;;;;;;4.67;25.87;101500.03;4404440;32;34166;-82
2022/03/11 10:15:36;;;;;;;;;;;;;;;4.95;25.47;101497.87;4396979;32;34425;-81
2022/03/11 10:18:08;;;;;;;;;;;;;;;5.07;24.20;101494.69;4410708;32;34534;-83
2022/03/11 10:20:36;;;;;;;;;;;;;;;5.18;24.55;101497.69;4409909;32;34452;-82
2022/03/11 10:23:11;;;;;;;;;;;;;;;5.07;25.94;101496.50;4402568;32;33983;-83
2022/03/11 10:25:39;;;;;;;;;;;;;;;5.56;24.92;101495.03;4402758;32;34854;-82
2022/03/11 10:28:08;;;;;;;;;;;;;;;5.66;24.39;101487.50;4403635;32;33307;-81
2022/03/11 10:30:37;;;;;;;;;;;;;;;5.54;22.88;101488.09;4403546;32;35164;-82
2022/03/11 10:33:06;;;;;;;;;;;;;;;5.85;23.19;101491.00;4393015;32;32918;-83
2022/03/11 10:35:34;;;;;;;;;;;;;;;5.75;25.84;101487.94;4403981;32;32117;-81
2022/03/11 10:38:02;;;;;;;;;;;;;;;5.79;24.40;101478.97;4384603;32;35414;-84
2022/03/11 10:40:32;;;;;;;;;;;;;;;6.18;22.67;101482.31;4391535;32;35245;-84
2022/03/11 10:43:08;;;;;;;;;;;;;;;5.62;23.21;101473.63;4390238;32;32812;-83
2022/03/11 10:45:44;;;;;;;;;;;;;;;5.71;22.70;101474.94;4401661;32;34406;-88
2022/03/11 10:48:12;;;;;;;;;;;;;;;5.27;22.71;101472.69;4399141;32;35298;-84
2022/03/11 10:50:41;;;;;;;;;;;;;;;5.66;24.24;101479.59;4385146;32;33510;-83
2022/03/11 10:53:09;;;;;;;;;;;;;;;5.83;22.77;101471.75;4403892;32;34169;-80
2022/03/11 10:55:39;;;;;;;;;;;;;;;5.79;21.48;101465.75;4382978;32;32001;-80
2022/03/11 10:58:06;;;;;;;;;;;;;;;5.68;23.50;101456.63;4395959;32;34364;-81
2022/03/11 11:00:39;;;;;;;;;;;;;;;6.09;22.79;101459.00;4394395;32;34046;-82
2022/03/11 11:03:08;;;;;;;;;;;;;;;6.44;22.51;101452.78;4405708;32;33264;-82
2022/03/11 11:05:36;;;;;;;;;;;;;;;6.78;22.32;101442.16;4396653;32;32878;-81
2022/03/11 11:08:04;;;;;;;;;;;;;;;6.98;20.78;101428.72;4407155;32;35027;-82
2022/03/11 11:10:33;;;;;;;;;;;;;;;7.02;21.37;101438.22;4385020;32;34746;-82
2022/03/11 11:13:01;;;;;;;;;;;;;;;6.78;21.58;101438.66;4399221;32;34297;-81
2022/03/11 11:15:29;;;;;;;;;;;;;;;6.95;20.41;101433.31;4383341;32;32144;-80
2022/03/11 11:18:00;;;;;;;;;;;;;;;7.23;21.69;101434.41;4410775;32;35128;-80
2022/03/11 11:20:40;;;;;;;;;;;;;;;7.69;19.96;101425.62;4407227;32;33777;-79
2022/03/11 11:23:09;;;;;;;;;;;;;;;7.42;19.87;101435.12;4401442;32;34228;-80
2022/03/11 11:25:38;;;;;;;;;;;;;;;7.66;19.70;101428.44;4399480;32;34356;-80
2022/03/11 11:28:11;;;;;;;;;;;;;;;7.62;19.91;101418.09;4405646;32;34746;-80
2022/03/11 11:30:39;;;;;;;;;;;;;;;7.58;21.66;101413.91;4412816;32;34791;-81
2022/03/11 11:33:06;;;;;;;;;;;;;;;7.89;21.07;101408.56;4386564;32;33024;-82
2022/03/11 11:35:35;;;;;;;;;;;;;;;7.52;20.76;101403.66;4393215;32;33448;-82
2022/03/11 11:38:07;;;;;;;;;;;;;;;7.91;19.37;101404.06;4400358;32;35093;-82
2022/03/11 11:40:36;;;;;;;;;;;;;;;7.80;20.02;101399.37;4398579;32;32687;-82
2022/03/11 11:43:16;;;;;;;;;;;;;;;7.70;19.40;101398.19;4400666;32;32866;-81
2022/03/11 11:45:48;;;;;;;;;;;;;;;7.84;18.82;101398.25;4400380;32;35961;-83
2022/03/11 11:48:31;;;;;;;;;;;;;;;7.68;20.12;101396.56;4407593;32;34718;-81
2022/03/11 11:51:00;;;;;;;;;;;;;;;7.72;18.50;101391.00;4392768;32;34755;-81
2022/03/11 11:53:37;;;;;;;;;;;;;;;8.19;17.37;101386.47;4379777;32;33068;-84
2022/03/11 11:56:24;;;;;;;;;;;;;;;7.73;19.00;101391.88;4405423;32;33706;-81
2022/03/11 11:58:52;;;;;;;;;;;;;;;7.23;18.23;101383.25;4390183;32;35414;-82
2022/03/11 12:01:42;;;;;;;;;;;;;;;7.37;18.63;101381.53;4407477;32;35386;-80
2022/03/11 12:04:28;;;;;;;;;;;;;;;8.04;17.97;101370.59;4407161;32;32848;-81
2022/03/11 12:06:56;;;;;;;;;;;;;;;8.16;18.99;101373.38;4377591;32;33512;-81
2022/03/11 12:15:11;;;;;;;;;;;;;;;8.70;18.01;101360.31;4407221;32;33562;-84
2022/03/11 12:17:51;;;;;;;;;;;;;;;8.90;18.05;101351.94;4405986;32;33013;-84
2022/03/11 12:20:32;;;;;;;;;;;;;;;8.18;18.06;101362.66;4406635;32;35139;-83
2022/03/11 12:23:29;;;;;;;;;;;;;;;8.22;17.83;101353.62;4395181;32;34963;-84
2022/03/11 12:26:00;;;;;;;;;;;;;;;8.49;17.81;101352.81;4379363;32;33214;-83
2022/03/11 12:28:29;;;;;;;;;;;;;;;8.01;18.73;101354.88;4405547;32;32693;-84
2022/03/11 12:31:14;;;;;;;;;;;;;;;8.53;18.25;101354.34;4389190;32;35009;-85
2022/03/11 12:33:43;;;;;;;;;;;;;;;8.53;17.58;101349.88;4402405;32;35414;-84
2022/03/11 12:36:11;;;;;;;;;;;;;;;8.36;17.80;101343.03;4393595;32;34936;-84
2022/03/11 12:38:40;;;;;;;;;;;;;;;9.11;18.07;101333.81;4404409;32;34587;-84
2022/03/11 12:41:12;;;;;;;;;;;;;;;10.39;19.18;101332.19;4392594;32;35186;-83
2022/03/11 12:43:41;;;;;;;;;;;;;;;11.46;14.98;101320.81;4396068;32;34248;-81
2022/03/11 12:46:09;;;;;;;;;;;;;;;11.12;16.22;101325.22;4404124;32;35307;-84
2022/03/11 12:48:38;;;;;;;;;;;;;;;11.55;14.96;101321.97;4413695;32;34309;-85
2022/03/11 12:51:07;;;;;;;;;;;;;;;12.32;15.16;101312.44;4391799;32;35741;-85
2022/03/11 12:53:39;;;;;;;;;;;;;;;11.83;15.10;101314.47;4396071;32;36097;-83
2022/03/11 12:56:07;;;;;;;;;;;;;;;11.45;14.67;101320.94;4399995;32;33200;-81
2022/03/11 12:58:36;;;;;;;;;;;;;;;11.52;14.43;101316.84;4406784;32;34106;-83
2022/03/11 13:01:07;;;;;;;;;;;;;;;10.71;14.38;101320.19;4393383;32;34759;-84